Time;durP1;ratioP1;P1;durP2;ratioP2;P2;SDS_P1;SDS_P2;PMS_P1;PMS_P2;Temp;Humidity;BMP_temperature;BMP_pressure;BME280_temperature;BME280_humidity;BME280_pressure;Samples;Min_cycle;Max_cycle;Signal;HPM_P1;HPM_P2
2023/07/20 00:01:13;;;;;;;1.47;1.47;;;24.00;70.60;;;;;;5063152;28;44511;-70
2023/07/20 00:03:41;;;;;;;1.57;1.57;;;24.00;70.70;;;;;;5058891;28;43420;-70
2023/07/20 00:06:09;;;;;;;1.53;1.53;;;23.90;70.70;;;;;;5075941;28;43348;-70
2023/07/20 00:08:37;;;;;;;1.37;1.37;;;23.90;71.10;;;;;;5072569;28;43597;-71
2023/07/20 00:11:07;;;;;;;1.40;1.40;;;23.90;71.10;;;;;;5070745;28;43409;-71
2023/07/20 00:13:36;;;;;;;1.47;1.47;;;23.90;71.10;;;;;;5062479;28;43877;-71
2023/07/20 00:16:04;;;;;;;1.50;1.50;;;23.90;71.10;;;;;;5062922;28;43391;-71
2023/07/20 00:18:32;;;;;;;1.40;1.40;;;23.80;71.30;;;;;;5065345;28;43659;-71
2023/07/20 00:21:01;;;;;;;1.33;1.33;;;23.90;71.40;;;;;;5061517;28;45269;-71
2023/07/20 00:23:29;;;;;;;1.43;1.43;;;24.00;71.20;;;;;;5050538;28;43439;-71
2023/07/20 00:25:57;;;;;;;1.30;1.30;;;24.00;70.80;;;;;;5081024;28;43526;-71
2023/07/20 00:28:27;;;;;;;1.13;1.13;;;24.10;70.40;;;;;;5079961;28;43904;-72
2023/07/20 00:30:54;;;;;;;1.37;1.23;;;24.20;70.20;;;;;;5075006;28;43454;-70
2023/07/20 00:33:22;;;;;;;1.30;1.30;;;24.10;69.90;;;;;;5057149;28;43467;-70
2023/07/20 00:35:50;;;;;;;1.40;1.40;;;24.10;70.10;;;;;;5080554;28;43378;-71
2023/07/20 00:38:19;;;;;;;1.40;1.40;;;24.00;70.50;;;;;;5067877;28;43774;-71
2023/07/20 00:40:49;;;;;;;1.20;1.20;;;24.00;70.60;;;;;;5054426;28;43427;-71
2023/07/20 00:43:19;;;;;;;1.40;1.40;;;24.00;70.60;;;;;;5063701;28;43447;-70
2023/07/20 00:45:48;;;;;;;1.43;1.33;;;24.00;70.60;;;;;;5077539;28;43442;-70
2023/07/20 00:48:18;;;;;;;1.30;1.30;;;23.90;70.90;;;;;;5054634;28;46081;-70
2023/07/20 00:50:46;;;;;;;1.23;1.23;;;23.90;71.10;;;;;;5062247;28;44735;-70
2023/07/20 00:53:14;;;;;;;1.30;1.30;;;23.90;71.10;;;;;;5075735;28;43459;-70
2023/07/20 00:55:42;;;;;;;1.20;1.20;;;23.90;71.00;;;;;;5057498;28;43455;-70
2023/07/20 00:58:10;;;;;;;1.37;1.37;;;23.90;71.10;;;;;;5058847;28;43614;-70
2023/07/20 01:00:38;;;;;;;1.10;1.10;;;23.80;71.40;;;;;;5072009;28;43355;-70
2023/07/20 01:03:07;;;;;;;1.17;1.17;;;23.90;71.30;;;;;;5052755;28;43997;-70
2023/07/20 01:05:40;;;;;;;1.30;1.30;;;23.90;70.90;;;;;;5075497;28;43431;-70
2023/07/20 01:08:10;;;;;;;1.60;1.60;;;24.00;70.60;;;;;;5062804;28;45754;-70
2023/07/20 01:10:40;;;;;;;1.30;1.30;;;24.10;70.20;;;;;;5086978;28;43469;-70
2023/07/20 01:13:08;;;;;;;1.30;1.30;;;24.10;70.00;;;;;;5067413;28;43419;-71
2023/07/20 01:15:39;;;;;;;1.17;1.17;;;24.10;70.00;;;;;;5059782;28;43395;-70
2023/07/20 01:18:08;;;;;;;1.20;1.20;;;24.00;70.40;;;;;;5080893;28;43804;-70
2023/07/20 01:20:38;;;;;;;1.30;1.30;;;24.00;70.60;;;;;;5084201;28;43438;-70
2023/07/20 01:23:36;;;;;;;1.10;1.10;;;24.00;70.60;;;;;;5056900;28;43416;-70
2023/07/20 01:26:12;;;;;;;1.50;1.50;;;23.90;70.60;;;;;;5071873;28;43444;-70
2023/07/20 01:28:55;;;;;;;1.30;1.30;;;23.90;71.00;;;;;;5052549;28;45711;-70
2023/07/20 01:31:25;;;;;;;1.23;1.23;;;23.90;71.10;;;;;;5065343;28;44135;-69
2023/07/20 01:33:55;;;;;;;1.30;1.30;;;23.90;70.90;;;;;;5079963;28;43472;-69
2023/07/20 01:36:23;;;;;;;1.20;1.20;;;23.90;71.10;;;;;;5079712;28;43444;-69
2023/07/20 01:38:52;;;;;;;1.17;1.17;;;23.80;71.20;;;;;;5072285;28;43748;-71
2023/07/20 01:41:20;;;;;;;1.30;1.30;;;23.80;71.30;;;;;;5069589;28;43364;-70
2023/07/20 01:43:48;;;;;;;1.20;1.20;;;23.90;71.20;;;;;;5063712;28;43471;-70
2023/07/20 01:46:16;;;;;;;1.30;1.30;;;24.00;70.90;;;;;;5053103;28;43555;-71
2023/07/20 01:48:45;;;;;;;1.40;1.40;;;24.10;70.60;;;;;;5070669;28;45858;-70
2023/07/20 01:51:14;;;;;;;1.33;1.33;;;24.10;70.20;;;;;;5079546;28;43522;-71
2023/07/20 01:53:41;;;;;;;1.13;1.13;;;24.10;70.00;;;;;;5084294;28;44194;-70
2023/07/20 01:56:12;;;;;;;1.23;1.23;;;24.10;69.90;;;;;;5068355;28;43431;-70
2023/07/20 01:58:40;;;;;;;1.40;1.40;;;24.00;70.30;;;;;;5058128;28;45743;-70
2023/07/20 02:01:08;;;;;;;1.43;1.43;;;24.00;70.60;;;;;;5067393;28;43614;-70
2023/07/20 02:03:36;;;;;;;1.40;1.40;;;24.00;70.60;;;;;;5084216;28;43985;-70
2023/07/20 02:06:06;;;;;;;1.40;1.40;;;24.00;70.50;;;;;;5071163;28;43928;-70
2023/07/20 02:08:33;;;;;;;1.10;1.10;;;23.90;70.80;;;;;;5070644;28;43759;-70
2023/07/20 02:11:02;;;;;;;1.33;1.33;;;23.90;71.10;;;;;;5058283;28;44731;-70
2023/07/20 02:13:31;;;;;;;1.40;1.40;;;23.90;71.00;;;;;;5064989;28;43436;-70
2023/07/20 02:15:59;;;;;;;1.03;1.03;;;24.00;70.70;;;;;;5072349;28;43952;-70
2023/07/20 02:18:27;;;;;;;1.10;1.10;;;24.10;70.40;;;;;;5082189;28;43710;-70
2023/07/20 02:20:55;;;;;;;1.33;1.33;;;24.10;70.20;;;;;;5084354;28;43487;-70
2023/07/20 02:23:25;;;;;;;1.40;1.40;;;24.10;70.10;;;;;;5059132;28;43464;-70
2023/07/20 02:25:53;;;;;;;1.30;1.30;;;24.10;70.00;;;;;;5068727;28;43475;-70
2023/07/20 02:28:20;;;;;;;1.40;1.40;;;24.00;70.40;;;;;;5060056;28;45235;-70
2023/07/20 02:30:49;;;;;;;1.10;1.10;;;24.00;70.60;;;;;;5086047;28;43308;-70
2023/07/20 02:33:17;;;;;;;1.30;1.30;;;24.00;70.60;;;;;;5058339;28;43462;-70
2023/07/20 02:35:45;;;;;;;1.30;1.30;;;23.90;70.50;;;;;;5088603;28;44058;-70
2023/07/20 02:38:13;;;;;;;1.00;1.00;;;23.90;70.90;;;;;;5060458;28;45812;-70
2023/07/20 02:40:42;;;;;;;1.40;1.40;;;23.90;71.10;;;;;;5058874;28;44706;-70
2023/07/20 02:43:10;;;;;;;1.30;1.30;;;23.80;70.90;;;;;;5083814;28;43839;-70
2023/07/20 02:45:41;;;;;;;1.17;1.17;;;23.80;70.90;;;;;;5062056;28;43525;-70
2023/07/20 02:48:10;;;;;;;1.20;1.20;;;23.80;71.00;;;;;;5060856;28;45797;-70
2023/07/20 02:50:38;;;;;;;1.20;1.20;;;23.80;71.40;;;;;;5067371;28;43409;-71
2023/07/20 02:53:06;;;;;;;1.20;1.20;;;23.80;71.20;;;;;;5044125;28;43734;-72
2023/07/20 02:55:34;;;;;;;1.40;1.40;;;23.90;71.00;;;;;;5085261;27;43439;-71
2023/07/20 02:58:03;;;;;;;1.20;1.20;;;24.00;70.60;;;;;;5055391;28;44623;-70
2023/07/20 03:00:32;;;;;;;1.30;1.30;;;24.10;70.30;;;;;;5074624;28;43344;-70
2023/07/20 03:03:00;;;;;;;1.20;1.20;;;24.10;70.10;;;;;;5061630;28;43447;-70
2023/07/20 03:05:28;;;;;;;1.20;1.20;;;24.10;69.90;;;;;;5046528;28;43571;-70
2023/07/20 03:07:56;;;;;;;1.30;1.30;;;24.00;70.00;;;;;;5046748;28;45444;-70
2023/07/20 03:10:24;;;;;;;1.20;1.20;;;24.00;70.60;;;;;;5045803;28;44427;-71
2023/07/20 03:12:52;;;;;;;1.20;1.20;;;23.90;70.50;;;;;;5050939;28;43412;-71
2023/07/20 03:15:22;;;;;;;1.27;1.27;;;23.90;70.50;;;;;;5034379;28;43576;-70
2023/07/20 03:17:50;;;;;;;1.20;1.20;;;23.90;70.70;;;;;;5048289;28;45973;-70
2023/07/20 03:20:18;;;;;;;1.10;1.10;;;23.80;70.90;;;;;;5042277;28;44622;-70
2023/07/20 03:22:46;;;;;;;1.00;1.00;;;23.80;70.90;;;;;;5058934;28;43347;-70
2023/07/20 03:25:15;;;;;;;1.30;1.30;;;23.80;70.70;;;;;;5064881;28;43855;-70
2023/07/20 03:27:43;;;;;;;1.10;1.10;;;23.80;70.90;;;;;;5046983;28;45934;-70
2023/07/20 03:30:12;;;;;;;1.77;1.30;;;23.80;71.00;;;;;;5042934;28;44456;-70
2023/07/20 03:32:41;;;;;;;1.20;1.20;;;23.70;71.20;;;;;;5054654;28;43408;-70
2023/07/20 03:35:09;;;;;;;1.20;1.20;;;23.80;71.70;;;;;;5064433;28;43392;-70
2023/07/20 03:37:38;;;;;;;1.20;1.20;;;23.90;70.80;;;;;;5042761;28;45694;-70
2023/07/20 03:40:07;;;;;;;1.30;1.30;;;24.00;70.30;;;;;;5052655;28;43927;-70
2023/07/20 03:42:36;;;;;;;1.20;1.20;;;24.00;70.40;;;;;;5056592;28;43357;-72
2023/07/20 03:45:06;;;;;;;1.33;1.33;;;24.10;69.60;;;;;;5039543;28;43518;-70
2023/07/20 03:47:34;;;;;;;1.20;1.20;;;24.00;69.60;;;;;;5038908;28;44153;-70
2023/07/20 03:50:05;;;;;;;1.37;1.37;;;24.00;70.10;;;;;;5039935;28;44679;-70
2023/07/20 03:52:33;;;;;;;1.20;1.20;;;23.90;70.10;;;;;;5059569;28;44041;-70
2023/07/20 03:55:02;;;;;;;1.40;1.40;;;23.90;70.10;;;;;;5063020;28;43624;-70
2023/07/20 03:57:33;;;;;;;1.43;1.33;;;23.90;70.30;;;;;;5057130;28;43592;-70
2023/07/20 04:00:01;;;;;;;8.30;1.60;;;23.80;70.40;;;;;;5062818;28;43353;-71
2023/07/20 04:02:39;;;;;;;1.67;1.40;;;23.80;70.60;;;;;;5061179;28;43404;-70
2023/07/20 04:05:09;;;;;;;1.40;1.30;;;23.80;70.40;;;;;;5043203;28;44052;-71
2023/07/20 04:07:37;;;;;;;1.60;1.50;;;23.90;70.20;;;;;;5054440;28;43850;-72
2023/07/20 04:10:06;;;;;;;1.70;1.60;;;24.00;69.70;;;;;;5044794;28;44267;-71
2023/07/20 04:12:36;;;;;;;2.37;1.67;;;24.00;69.20;;;;;;5029846;28;43978;-70
2023/07/20 04:15:05;;;;;;;1.70;1.60;;;24.00;69.10;;;;;;5036773;28;43646;-71
2023/07/20 04:17:33;;;;;;;1.63;1.53;;;24.00;69.50;;;;;;5038108;28;44054;-70
2023/07/20 04:20:02;;;;;;;1.60;1.60;;;23.90;69.80;;;;;;5049471;28;43365;-70
2023/07/20 04:22:31;;;;;;;1.77;1.67;;;23.90;69.80;;;;;;5033064;28;43892;-70
2023/07/20 04:24:59;;;;;;;2.27;2.07;;;23.90;69.90;;;;;;5033321;28;43599;-70
2023/07/20 04:27:27;;;;;;;2.13;1.97;;;23.90;70.10;;;;;;5033467;28;45893;-70
2023/07/20 04:29:55;;;;;;;2.70;2.60;;;23.80;70.10;;;;;;5036597;28;44943;-70
2023/07/20 04:32:25;;;;;;;2.33;2.23;;;23.80;70.30;;;;;;5032695;28;43532;-70
2023/07/20 04:34:53;;;;;;;3.20;2.43;;;23.80;70.40;;;;;;5053605;28;43437;-70
2023/07/20 04:37:21;;;;;;;3.80;3.03;;;23.80;70.40;;;;;;5031143;28;45980;-71
2023/07/20 04:39:51;;;;;;;3.00;2.70;;;23.70;70.30;;;;;;5037488;28;43429;-69
2023/07/20 04:42:20;;;;;;;3.53;2.90;;;23.70;70.60;;;;;;5046646;28;43407;-70
2023/07/20 04:44:48;;;;;;;5.37;3.07;;;23.70;70.30;;;;;;5038030;28;43487;-70
2023/07/20 04:47:16;;;;;;;3.80;3.17;;;23.90;70.20;;;;;;5043027;28;43975;-69
2023/07/20 04:49:45;;;;;;;3.30;3.00;;;24.00;69.90;;;;;;5043375;28;45018;-69
2023/07/20 04:52:13;;;;;;;5.53;3.10;;;24.00;69.30;;;;;;5047436;28;43365;-70
2023/07/20 04:54:41;;;;;;;5.80;3.17;;;24.00;69.20;;;;;;5041220;28;43484;-69
2023/07/20 04:57:13;;;;;;;3.00;2.70;;;24.00;69.40;;;;;;5042124;28;45702;-70
2023/07/20 04:59:46;;;;;;;3.00;2.80;;;23.90;69.70;;;;;;5027877;28;45054;-70
2023/07/20 05:02:14;;;;;;;3.60;3.00;;;23.90;69.80;;;;;;5067045;28;43355;-70
2023/07/20 05:04:42;;;;;;;4.10;2.97;;;23.90;69.90;;;;;;5059879;28;43426;-69
2023/07/20 05:07:10;;;;;;;3.53;2.60;;;23.90;69.90;;;;;;5068671;28;45575;-72
2023/07/20 05:09:38;;;;;;;3.37;2.97;;;23.80;70.00;;;;;;5086842;28;43469;-69
2023/07/20 05:12:07;;;;;;;4.30;2.77;;;23.80;70.30;;;;;;5064635;28;43399;-70
2023/07/20 05:14:37;;;;;;;2.80;2.60;;;23.80;70.30;;;;;;5070917;28;43550;-69
2023/07/20 05:17:06;;;;;;;3.80;2.90;;;23.80;70.30;;;;;;5066982;28;45396;-69
2023/07/20 05:19:34;;;;;;;3.13;2.80;;;23.70;70.20;;;;;;5069900;28;45025;-70
2023/07/20 05:22:02;;;;;;;3.47;3.20;;;23.70;70.50;;;;;;5073486;28;43438;-69
2023/07/20 05:24:30;;;;;;;2.80;2.70;;;23.70;70.60;;;;;;5071691;28;43964;-71
2023/07/20 05:26:58;;;;;;;3.50;3.20;;;23.80;70.20;;;;;;5074571;28;43646;-71
2023/07/20 05:29:26;;;;;;;4.33;2.97;;;23.90;69.90;;;;;;5071955;28;44719;-70
2023/07/20 05:31:56;;;;;;;3.20;2.90;;;24.00;69.60;;;;;;5081951;28;44015;-70
2023/07/20 05:34:24;;;;;;;3.10;2.60;;;24.00;70.20;;;;;;5088285;28;43329;-69
2023/07/20 05:36:52;;;;;;;2.90;2.70;;;24.00;69.50;;;;;;5084672;28;43765;-72
2023/07/20 05:39:20;;;;;;;2.87;2.60;;;24.00;69.70;;;;;;5085641;28;43408;-69
2023/07/20 05:41:48;;;;;;;2.93;2.73;;;23.90;70.10;;;;;;5076625;28;43400;-70
2023/07/20 05:44:16;;;;;;;2.80;2.60;;;23.90;70.10;;;;;;5088622;28;43527;-69
2023/07/20 05:46:44;;;;;;;2.73;2.60;;;23.90;70.10;;;;;;5082197;28;43598;-69
2023/07/20 05:49:25;;;;;;;3.20;2.97;;;23.80;70.10;;;;;;5083414;28;43435;-69
2023/07/20 05:51:53;;;;;;;2.47;2.27;;;23.80;70.40;;;;;;5083725;28;43511;-69
2023/07/20 05:54:21;;;;;;;2.80;2.70;;;23.70;70.50;;;;;;5087199;28;43445;-71
2023/07/20 05:56:49;;;;;;;2.77;2.57;;;23.80;70.30;;;;;;5087292;28;43752;-70
2023/07/20 05:59:17;;;;;;;2.93;2.73;;;23.90;70.20;;;;;;5086270;28;43466;-70
2023/07/20 06:01:46;;;;;;;2.83;2.63;;;23.90;70.10;;;;;;5069330;28;43420;-71
2023/07/20 06:04:15;;;;;;;2.70;2.60;;;23.90;70.10;;;;;;5072580;28;43546;-70
2023/07/20 06:06:44;;;;;;;2.93;2.67;;;23.80;70.30;;;;;;5084483;28;43610;-71
2023/07/20 06:09:12;;;;;;;2.67;2.47;;;23.80;70.20;;;;;;5071563;28;44007;-70
2023/07/20 06:11:40;;;;;;;3.00;2.80;;;23.80;70.20;;;;;;5072947;28;43447;-71
2023/07/20 06:14:08;;;;;;;2.73;2.53;;;23.80;70.20;;;;;;5081374;28;43439;-71
2023/07/20 06:16:36;;;;;;;2.57;2.47;;;23.80;70.30;;;;;;5077117;28;43833;-70
2023/07/20 06:19:04;;;;;;;2.70;2.60;;;23.70;70.60;;;;;;5078604;28;43533;-70
2023/07/20 06:21:32;;;;;;;2.30;2.20;;;23.80;70.40;;;;;;5076768;28;43960;-70
2023/07/20 06:24:01;;;;;;;2.50;2.40;;;23.80;70.20;;;;;;5082829;28;43420;-71
2023/07/20 06:26:29;;;;;;;2.50;2.40;;;23.80;70.10;;;;;;5073110;28;43595;-71
2023/07/20 06:28:57;;;;;;;2.63;2.53;;;23.80;70.20;;;;;;5072684;28;45180;-70
2023/07/20 06:31:25;;;;;;;2.40;2.30;;;23.80;70.40;;;;;;5076455;27;43524;-71
2023/07/20 06:33:53;;;;;;;2.27;2.17;;;23.80;70.30;;;;;;5085947;28;43531;-70
2023/07/20 06:36:22;;;;;;;2.40;2.30;;;23.80;70.30;;;;;;5068939;28;45687;-71
2023/07/20 06:38:50;;;;;;;2.33;2.23;;;23.70;70.30;;;;;;5083612;28;43376;-70
2023/07/20 06:41:22;;;;;;;2.37;2.20;;;23.70;70.70;;;;;;5083154;28;43394;-69
2023/07/20 06:43:57;;;;;;;2.30;2.20;;;23.70;70.60;;;;;;5084584;28;43399;-69
2023/07/20 06:46:26;;;;;;;2.57;2.47;;;23.80;70.40;;;;;;5080155;28;43957;-69
2023/07/20 06:48:55;;;;;;;2.47;2.37;;;23.90;70.00;;;;;;5084136;28;44000;-69
2023/07/20 06:51:26;;;;;;;2.40;2.20;;;23.90;69.70;;;;;;5085720;28;43469;-69
2023/07/20 06:53:54;;;;;;;2.30;2.20;;;24.00;69.60;;;;;;5070143;28;43419;-69
2023/07/20 06:56:23;;;;;;;2.10;2.00;;;23.90;69.60;;;;;;5072488;28;46126;-69
2023/07/20 06:58:53;;;;;;;2.00;2.00;;;23.90;69.80;;;;;;5068728;28;43342;-70
2023/07/20 07:01:21;;;;;;;2.20;2.10;;;23.80;70.20;;;;;;5068843;28;43383;-71
2023/07/20 07:03:50;;;;;;;2.00;2.00;;;23.80;70.20;;;;;;5071729;28;43352;-69
2023/07/20 07:06:23;;;;;;;2.60;2.40;;;23.80;70.30;;;;;;5071210;28;43938;-70
2023/07/20 07:08:53;;;;;;;1.90;1.90;;;23.70;70.10;;;;;;5077985;28;43385;-72
2023/07/20 07:11:23;;;;;;;2.00;2.00;;;23.70;70.70;;;;;;5082026;28;43978;-70
2023/07/20 07:13:51;;;;;;;2.33;2.23;;;23.70;70.80;;;;;;5084790;28;43423;-69
2023/07/20 07:16:20;;;;;;;2.10;2.10;;;23.70;70.80;;;;;;5083397;28;43664;-70
2023/07/20 07:18:48;;;;;;;2.10;2.00;;;23.60;71.10;;;;;;5069928;28;44983;-69
2023/07/20 07:21:16;;;;;;;2.40;2.30;;;23.60;70.90;;;;;;5083018;28;43375;-69
2023/07/20 07:23:44;;;;;;;2.10;2.00;;;23.60;71.00;;;;;;5082853;28;43443;-69
2023/07/20 07:26:12;;;;;;;2.20;2.10;;;23.60;70.90;;;;;;5071362;28;45401;-70
2023/07/20 07:28:41;;;;;;;2.30;2.20;;;23.60;70.80;;;;;;5071673;28;45040;-69
2023/07/20 07:31:10;;;;;;;2.03;2.00;;;23.60;70.90;;;;;;5071576;28;43441;-68
2023/07/20 07:33:38;;;;;;;2.00;2.00;;;23.60;71.20;;;;;;5069649;28;43534;-69
2023/07/20 07:36:06;;;;;;;2.00;2.00;;;23.60;70.90;;;;;;5081915;28;43533;-70
2023/07/20 07:38:34;;;;;;;2.10;2.00;;;23.70;70.60;;;;;;5087398;28;43361;-70
2023/07/20 07:41:22;;;;;;;2.00;2.00;;;23.80;70.30;;;;;;5088619;28;43348;-69
2023/07/20 07:43:52;;;;;;;2.23;2.13;;;23.90;70.00;;;;;;5080126;28;43447;-70
2023/07/20 07:46:20;;;;;;;2.00;1.90;;;23.90;69.70;;;;;;5081632;28;43879;-70
2023/07/20 07:48:49;;;;;;;1.80;1.80;;;23.90;69.80;;;;;;5087089;28;43484;-71
2023/07/20 07:51:17;;;;;;;2.10;2.00;;;23.90;70.00;;;;;;5069120;28;43523;-70
2023/07/20 07:53:45;;;;;;;2.07;1.97;;;23.80;70.20;;;;;;5084854;28;43399;-70
2023/07/20 07:56:13;;;;;;;2.20;2.20;;;23.80;70.20;;;;;;5070845;28;45186;-70
2023/07/20 07:58:41;;;;;;;2.00;1.90;;;23.70;70.30;;;;;;5083708;28;43414;-71
2023/07/20 08:01:10;;;;;;;2.10;2.00;;;23.70;70.20;;;;;;5071371;28;43399;-71
2023/07/20 08:03:38;;;;;;;1.87;1.87;;;23.70;70.90;;;;;;5067192;28;43599;-70
2023/07/20 08:06:06;;;;;;;1.77;1.77;;;23.60;70.80;;;;;;5081143;28;43985;-71
2023/07/20 08:08:35;;;;;;;2.00;2.00;;;23.60;70.80;;;;;;5076738;28;43464;-70
2023/07/20 08:11:04;;;;;;;2.13;2.10;;;23.60;70.60;;;;;;5068675;28;44042;-69
2023/07/20 08:13:35;;;;;;;1.80;1.80;;;23.60;71.00;;;;;;5055296;28;43622;-72
2023/07/20 08:16:03;;;;;;;2.07;2.07;;;23.60;71.20;;;;;;5077452;28;43620;-69
2023/07/20 08:18:32;;;;;;;1.87;1.70;;;23.60;70.80;;;;;;5081048;28;43481;-70
2023/07/20 08:21:00;;;;;;;1.63;1.63;;;23.70;70.50;;;;;;5050754;28;43472;-70
2023/07/20 08:23:28;;;;;;;1.93;1.93;;;23.80;70.20;;;;;;5079860;28;43436;-70
2023/07/20 08:25:56;;;;;;;1.90;1.90;;;23.90;70.00;;;;;;5061341;28;44037;-70
2023/07/20 08:28:26;;;;;;;1.73;1.73;;;23.90;69.90;;;;;;5051598;28;45055;-70
2023/07/20 08:30:54;;;;;;;1.90;1.90;;;23.80;69.90;;;;;;5064207;28;43516;-70
2023/07/20 08:33:23;;;;;;;2.13;2.03;;;23.80;70.30;;;;;;5075977;28;43924;-70
2023/07/20 08:35:52;;;;;;;1.83;1.83;;;23.70;70.30;;;;;;5052987;28;45955;-70
2023/07/20 08:38:21;;;;;;;1.70;1.70;;;23.70;70.30;;;;;;5057719;28;45452;-72
2023/07/20 08:40:53;;;;;;;1.70;1.70;;;23.70;70.30;;;;;;5077833;28;44349;-70
2023/07/20 08:43:21;;;;;;;2.10;2.00;;;23.60;70.50;;;;;;5081940;28;43420;-70
2023/07/20 08:45:49;;;;;;;2.03;2.03;;;23.60;70.90;;;;;;5087583;28;44162;-70
2023/07/20 08:48:17;;;;;;;1.80;1.80;;;23.60;70.80;;;;;;5077438;28;43893;-71
2023/07/20 08:50:45;;;;;;;1.77;1.77;;;23.60;70.80;;;;;;5066398;28;43385;-70
2023/07/20 08:53:14;;;;;;;1.67;1.67;;;23.60;70.70;;;;;;5071679;28;43427;-70
2023/07/20 08:55:43;;;;;;;1.60;1.60;;;23.50;71.20;;;;;;5089466;27;43738;-71
2023/07/20 08:58:11;;;;;;;1.70;1.70;;;23.50;71.10;;;;;;5085952;28;43474;-71
2023/07/20 09:00:39;;;;;;;1.50;1.50;;;23.60;70.80;;;;;;5072224;28;43832;-70
2023/07/20 09:03:10;;;;;;;1.87;1.80;;;23.70;70.40;;;;;;5075623;28;43555;-70
2023/07/20 09:05:38;;;;;;;1.70;1.70;;;23.80;70.20;;;;;;5062636;28;45683;-70
2023/07/20 09:08:06;;;;;;;1.90;1.90;;;23.90;70.10;;;;;;5078746;28;43495;-70
2023/07/20 09:10:36;;;;;;;1.60;1.60;;;23.80;70.10;;;;;;5068683;28;43480;-70
2023/07/20 09:13:04;;;;;;;1.70;1.70;;;23.80;70.20;;;;;;5080583;28;43459;-70
2023/07/20 09:15:32;;;;;;;1.60;1.60;;;23.70;70.60;;;;;;5085950;28;43911;-70
2023/07/20 09:18:02;;;;;;;1.70;1.70;;;23.70;70.60;;;;;;5069530;28;44638;-70
2023/07/20 09:20:32;;;;;;;1.57;1.57;;;23.70;70.60;;;;;;5060644;28;43858;-70
2023/07/20 09:23:00;;;;;;;1.70;1.70;;;23.60;70.60;;;;;;5084513;28;43410;-70
2023/07/20 09:25:29;;;;;;;1.53;1.53;;;23.60;71.10;;;;;;5061339;28;46013;-70
2023/07/20 09:28:00;;;;;;;1.70;1.70;;;23.60;71.00;;;;;;5067683;28;43365;-70
2023/07/20 09:30:28;;;;;;;1.47;1.47;;;23.60;71.00;;;;;;5081667;28;43379;-71
2023/07/20 09:32:59;;;;;;;1.70;1.70;;;23.50;70.60;;;;;;5066352;28;43442;-70
2023/07/20 09:35:27;;;;;;;1.60;1.60;;;23.50;71.00;;;;;;5063569;28;44030;-71
2023/07/20 09:38:08;;;;;;;1.40;1.40;;;23.50;71.30;;;;;;5073107;28;43405;-71
2023/07/20 09:40:39;;;;;;;1.80;1.73;;;23.50;71.20;;;;;;5083383;28;43450;-70
2023/07/20 09:43:12;;;;;;;1.43;1.43;;;23.50;71.10;;;;;;5083015;28;43368;-70
2023/07/20 09:45:43;;;;;;;1.60;1.60;;;23.50;70.90;;;;;;5073542;28;43800;-70
2023/07/20 09:48:14;;;;;;;1.50;1.50;;;23.40;71.60;;;;;;5079103;28;43399;-70
2023/07/20 09:50:50;;;;;;;1.67;1.67;;;23.50;71.50;;;;;;5068084;28;43388;-73
2023/07/20 09:53:19;;;;;;;1.50;1.50;;;23.60;71.10;;;;;;5056809;28;43515;-71
2023/07/20 09:55:48;;;;;;;1.40;1.40;;;23.70;70.80;;;;;;5059240;28;45792;-69
2023/07/20 09:58:17;;;;;;;1.53;1.53;;;23.80;70.40;;;;;;5066977;28;44715;-69
2023/07/20 10:00:46;;;;;;;1.77;1.77;;;23.90;70.20;;;;;;5068443;28;43445;-69
2023/07/20 10:03:19;;;;;;;1.60;1.60;;;23.80;70.10;;;;;;5078532;28;43380;-69
2023/07/20 10:05:49;;;;;;;1.60;1.60;;;23.80;70.20;;;;;;5071025;28;43616;-70
2023/07/20 10:08:18;;;;;;;1.40;1.40;;;23.80;70.60;;;;;;5073233;28;43387;-69
2023/07/20 10:10:49;;;;;;;1.70;1.70;;;23.70;70.50;;;;;;5065987;28;44068;-69
2023/07/20 10:13:20;;;;;;;1.40;1.40;;;23.70;70.50;;;;;;5086121;28;43439;-70
2023/07/20 10:15:51;;;;;;;1.37;1.37;;;23.60;70.20;;;;;;5079930;28;43613;-70
2023/07/20 10:18:21;;;;;;;1.40;1.40;;;23.60;70.90;;;;;;5069878;28;45055;-69
2023/07/20 10:20:49;;;;;;;1.40;1.40;;;23.60;71.10;;;;;;5067341;28;43480;-70
2023/07/20 10:23:20;;;;;;;1.80;1.70;;;23.60;71.10;;;;;;5081981;28;43368;-69
2023/07/20 10:25:48;;;;;;;1.40;1.40;;;23.50;70.60;;;;;;5068502;28;45906;-69
2023/07/20 10:28:16;;;;;;;1.40;1.40;;;23.50;70.90;;;;;;5070197;28;43458;-69
2023/07/20 10:30:45;;;;;;;1.63;1.63;;;23.50;71.40;;;;;;5067432;28;43523;-69
2023/07/20 10:33:13;;;;;;;1.47;1.47;;;23.50;71.30;;;;;;5090110;28;43377;-69
2023/07/20 10:35:54;;;;;;;1.30;1.30;;;23.50;70.90;;;;;;5070393;28;44036;-69
2023/07/20 10:38:40;;;;;;;1.30;1.30;;;23.50;70.90;;;;;;5062426;28;45213;-69
2023/07/20 10:41:17;;;;;;;1.60;1.60;;;23.50;71.70;;;;;;5084290;28;43411;-70
2023/07/20 10:43:47;;;;;;;1.40;1.40;;;23.50;71.50;;;;;;5066920;28;43391;-70
2023/07/20 10:46:33;;;;;;;1.50;1.50;;;23.60;71.10;;;;;;5072157;28;43774;-69
2023/07/20 10:49:01;;;;;;;1.30;1.30;;;23.70;70.70;;;;;;5053952;28;43443;-70
2023/07/20 10:51:29;;;;;;;1.50;1.50;;;23.80;71.10;;;;;;5078972;28;44112;-69
2023/07/20 10:53:58;;;;;;;1.50;1.50;;;23.80;70.30;;;;;;5071796;28;43340;-71
2023/07/20 10:56:27;;;;;;;1.30;1.30;;;23.80;70.20;;;;;;5060860;28;45656;-71
2023/07/20 10:58:58;;;;;;;1.47;1.47;;;23.70;70.60;;;;;;5064357;28;44796;-71
2023/07/20 11:01:31;;;;;;;1.20;1.20;;;23.70;70.60;;;;;;5083863;28;43372;-70
2023/07/20 11:04:01;;;;;;;1.50;1.50;;;23.70;70.70;;;;;;5085258;28;43474;-69
2023/07/20 11:06:37;;;;;;;1.50;1.50;;;23.60;70.40;;;;;;5076933;28;43679;-70
2023/07/20 11:09:07;;;;;;;1.30;1.30;;;23.60;71.10;;;;;;5085203;28;43511;-69
2023/07/20 11:11:37;;;;;;;1.33;1.33;;;23.60;71.30;;;;;;5070323;28;43475;-70
2023/07/20 11:14:06;;;;;;;1.30;1.30;;;23.60;71.10;;;;;;5071560;28;43438;-69
2023/07/20 11:16:37;;;;;;;1.20;1.20;;;23.70;70.90;;;;;;5061486;27;45701;-69
2023/07/20 11:19:05;;;;;;;1.20;1.20;;;23.80;70.50;;;;;;5082623;28;43493;-69
2023/07/20 11:21:37;;;;;;;1.40;1.40;;;23.80;70.40;;;;;;5069899;28;43346;-69
2023/07/20 11:24:18;;;;;;;1.53;1.53;;;23.80;70.30;;;;;;5065861;28;43494;-70
2023/07/20 11:26:47;;;;;;;1.40;1.40;;;23.70;70.00;;;;;;5052841;28;46038;-70
2023/07/20 11:29:16;;;;;;;1.30;1.30;;;23.70;70.70;;;;;;5062616;28;43439;-70
2023/07/20 11:32:01;;;;;;;1.40;1.40;;;23.60;70.80;;;;;;5061888;28;43423;-70
2023/07/20 11:34:31;;;;;;;1.40;1.40;;;23.60;70.50;;;;;;5063999;28;43500;-70
2023/07/20 11:36:59;;;;;;;1.50;1.50;;;23.60;70.50;;;;;;5065891;28;43612;-70
2023/07/20 11:39:30;;;;;;;1.20;1.20;;;23.50;71.00;;;;;;5080882;28;43409;-70
2023/07/20 11:41:58;;;;;;;1.53;1.43;;;23.50;71.10;;;;;;5064794;28;43476;-70
2023/07/20 11:44:27;;;;;;;1.20;1.20;;;23.50;71.00;;;;;;5081233;28;43785;-70
2023/07/20 11:47:04;;;;;;;1.40;1.40;;;23.50;70.70;;;;;;5077654;28;43863;-70
2023/07/20 11:49:35;;;;;;;1.30;1.30;;;23.50;71.00;;;;;;5073879;28;43456;-70
2023/07/20 11:52:04;;;;;;;1.37;1.37;;;23.50;71.50;;;;;;5062505;28;43858;-70
2023/07/20 11:54:32;;;;;;;1.27;1.27;;;23.50;71.30;;;;;;5061424;28;43442;-70
2023/07/20 11:57:02;;;;;;;1.40;1.40;;;23.50;70.90;;;;;;5071070;28;43858;-70
2023/07/20 11:59:31;;;;;;;1.27;1.27;;;23.40;70.90;;;;;;5059588;28;44382;-70
2023/07/20 12:01:59;;;;;;;1.40;1.40;;;23.40;71.70;;;;;;5063447;28;43434;-72
2023/07/20 12:04:29;;;;;;;1.40;1.40;;;23.50;71.60;;;;;;5067847;28;43494;-70
2023/07/20 12:06:57;;;;;;;1.37;1.37;;;23.60;71.20;;;;;;5051065;28;45705;-70
2023/07/20 12:09:25;;;;;;;1.20;1.20;;;23.70;71.50;;;;;;5055595;28;44636;-70
2023/07/20 12:12:11;;;;;;;1.20;1.20;;;23.80;70.50;;;;;;5081310;28;43362;-70
2023/07/20 12:14:38;;;;;;;1.30;1.30;;;23.80;70.20;;;;;;5058571;28;43576;-69
2023/07/20 12:17:09;;;;;;;1.20;1.20;;;23.80;70.10;;;;;;5088125;28;43532;-70
2023/07/20 12:19:40;;;;;;;1.27;1.27;;;23.70;70.00;;;;;;5072477;28;43803;-69
2023/07/20 12:22:08;;;;;;;1.50;1.50;;;23.70;70.10;;;;;;5068745;28;43383;-70
2023/07/20 12:24:36;;;;;;;1.50;1.50;;;23.60;70.20;;;;;;5054177;28;43499;-69
2023/07/20 12:27:05;;;;;;;1.20;1.20;;;23.60;70.40;;;;;;5078011;28;43689;-71
2023/07/20 12:29:36;;;;;;;1.30;1.30;;;23.50;70.40;;;;;;5075007;28;43405;-70
2023/07/20 12:32:06;;;;;;;1.30;1.30;;;23.50;70.60;;;;;;5058791;28;43431;-70
2023/07/20 12:34:34;;;;;;;1.47;1.47;;;23.50;70.60;;;;;;5077882;28;43609;-70
2023/07/20 12:37:05;;;;;;;1.27;1.27;;;23.40;70.70;;;;;;5074330;28;44103;-70
2023/07/20 12:39:33;;;;;;;1.10;1.10;;;23.40;70.90;;;;;;5073727;28;43424;-70
2023/07/20 12:42:01;;;;;;;1.20;1.20;;;23.40;70.90;;;;;;5075657;28;43564;-71
2023/07/20 12:44:29;;;;;;;1.30;1.30;;;23.40;71.70;;;;;;5078321;28;43415;-70
2023/07/20 12:46:57;;;;;;;1.40;1.40;;;23.40;71.80;;;;;;5060540;28;44703;-70
2023/07/20 12:49:25;;;;;;;1.23;1.23;;;23.50;71.40;;;;;;5075822;28;43491;-70
2023/07/20 12:51:53;;;;;;;1.20;1.20;;;23.60;70.80;;;;;;5080779;28;43435;-70
2023/07/20 12:54:23;;;;;;;1.27;1.27;;;23.80;70.20;;;;;;5078570;28;43366;-70
2023/07/20 12:56:51;;;;;;;1.20;1.20;;;24.00;69.30;;;;;;5077743;28;43912;-70
2023/07/20 12:59:21;;;;;;;1.20;1.20;;;24.30;68.70;;;;;;5074425;28;43281;-70